Time;durP1;ratioP1;P1;durP2;ratioP2;P2;SDS_P1;SDS_P2;PMS_P1;PMS_P2;Temp;Humidity;BMP_temperature;BMP_pressure;BME280_temperature;BME280_humidity;BME280_pressure;Samples;Min_cycle;Max_cycle;Signal;HPM_P1;HPM_P2
2024/04/01 00:01:28;;;;;;;1.63;1.52;;;;;;;9.46;100.00;99222.22;10441031;28;20124;-75
2024/04/01 00:06:29;;;;;;;0.40;0.40;;;;;;;9.48;100.00;99227.41;10456441;28;20476;-74
2024/04/01 00:11:29;;;;;;;0.40;0.40;;;;;;;9.54;100.00;99221.88;10458310;28;20045;-73
2024/04/01 00:16:29;;;;;;;0.50;0.50;;;;;;;9.74;100.00;99228.84;10458586;28;20049;-74
2024/04/01 00:21:30;;;;;;;0.55;0.55;;;;;;;9.91;100.00;99234.38;10456480;28;20029;-74
2024/04/01 00:26:30;;;;;;;1.65;1.65;;;;;;;9.98;100.00;99235.91;10457205;28;20475;-74
2024/04/01 00:31:31;;;;;;;1.08;1.08;;;;;;;9.97;100.00;99225.34;10457184;28;20083;-73
2024/04/01 00:36:31;;;;;;;0.40;0.40;;;;;;;9.86;100.00;99229.69;10455427;28;20428;-74
2024/04/01 00:41:32;;;;;;;0.80;0.80;;;;;;;9.73;100.00;99201.00;10456515;28;20391;-74
2024/04/01 00:46:32;;;;;;;0.57;0.57;;;;;;;9.59;100.00;99207.66;10456216;28;20048;-74
2024/04/01 00:51:33;;;;;;;0.50;0.50;;;;;;;9.51;100.00;99189.94;10455518;28;20033;-74
2024/04/01 00:56:34;;;;;;;0.63;0.63;;;;;;;9.39;100.00;99204.47;10455685;28;20060;-74
2024/04/01 01:01:34;;;;;;;1.55;1.55;;;;;;;9.30;100.00;99207.50;10454364;28;20509;-73
2024/04/01 01:06:35;;;;;;;0.50;0.50;;;;;;;9.19;100.00;99211.00;10455896;28;20052;-74
2024/04/01 01:11:36;;;;;;;0.70;0.70;;;;;;;9.17;100.00;99207.69;10437236;28;20131;-74
2024/04/01 01:16:37;;;;;;;0.45;0.45;;;;;;;9.17;100.00;99221.19;10454146;28;20052;-74
2024/04/01 01:21:37;;;;;;;0.65;0.65;;;;;;;9.08;100.00;99220.69;10455207;28;20036;-74
2024/04/01 01:26:37;;;;;;;0.50;0.50;;;;;;;9.08;100.00;99220.69;10454952;28;20559;-73
2024/04/01 01:31:39;;;;;;;3.47;3.33;;;;;;;8.96;100.00;99208.19;10454185;28;20025;-74
2024/04/01 01:36:39;;;;;;;0.40;0.40;;;;;;;8.93;100.00;99219.44;10455178;28;20078;-73
2024/04/01 01:41:39;;;;;;;0.80;0.80;;;;;;;8.85;100.00;99216.00;10456182;28;20519;-73
2024/04/01 01:46:40;;;;;;;1.00;1.00;;;;;;;8.73;100.00;99219.69;10453245;28;20445;-73
2024/04/01 01:51:40;;;;;;;0.50;0.50;;;;;;;8.71;100.00;99211.84;10454706;28;20029;-73
2024/04/01 01:56:41;;;;;;;0.50;0.50;;;;;;;8.70;100.00;99215.56;10454900;28;20440;-73
2024/04/01 02:01:41;;;;;;;1.35;1.35;;;;;;;8.68;100.00;99219.53;10453502;28;20037;-74
2024/04/01 02:06:41;;;;;;;0.88;0.88;;;;;;;8.62;100.00;99229.38;10462180;28;20025;-74
2024/04/01 02:11:42;;;;;;;0.60;0.60;;;;;;;8.59;100.00;99227.13;10464553;28;20051;-73
2024/04/01 02:16:42;;;;;;;0.55;0.55;;;;;;;8.58;100.00;99218.22;10462373;28;20057;-74
2024/04/01 02:21:45;;;;;;;0.52;0.52;;;;;;;8.60;100.00;99220.69;10462817;28;20071;-74
2024/04/01 02:26:48;;;;;;;2.30;2.15;;;;;;;8.64;100.00;99224.56;10461635;28;20533;-74
2024/04/01 02:31:49;;;;;;;2.15;2.15;;;;;;;8.70;100.00;99215.56;10461349;28;20108;-74
2024/04/01 02:36:49;;;;;;;0.50;0.50;;;;;;;8.76;100.00;99228.16;10460072;28;20119;-73
2024/04/01 02:41:50;;;;;;;0.50;0.50;;;;;;;8.83;100.00;99215.41;10460163;28;20029;-74
2024/04/01 02:46:51;;;;;;;0.80;0.80;;;;;;;9.00;100.00;99234.50;10459934;28;20123;-74
2024/04/01 02:51:51;;;;;;;0.50;0.50;;;;;;;9.10;100.00;99230.44;10460873;28;20029;-74
2024/04/01 02:56:51;;;;;;;0.60;0.60;;;;;;;9.08;100.00;99214.47;10460085;28;20080;-74
2024/04/01 03:01:52;;;;;;;0.90;0.90;;;;;;;9.10;100.00;99211.53;10460607;28;20033;-74
2024/04/01 03:06:53;;;;;;;0.50;0.50;;;;;;;9.10;100.00;99230.44;10459827;28;20029;-74
2024/04/01 03:11:53;;;;;;;0.52;0.52;;;;;;;9.15;100.00;99211.66;10475397;28;20032;-74
2024/04/01 03:16:53;;;;;;;0.43;0.43;;;;;;;9.13;100.00;99217.31;10457377;28;20185;-74
2024/04/01 03:21:54;;;;;;;0.60;0.60;;;;;;;9.04;100.00;99213.28;10460315;28;20025;-74
2024/04/01 03:26:54;;;;;;;1.05;1.05;;;;;;;9.13;100.00;99222.72;10442617;28;20075;-75
2024/04/01 03:31:54;;;;;;;1.83;1.73;;;;;;;9.23;100.00;99224.84;10458363;28;20170;-74
2024/04/01 03:36:57;;;;;;;0.95;0.95;;;;;;;9.30;100.00;99215.59;10458006;28;20111;-74
2024/04/01 03:41:58;;;;;;;0.50;0.50;;;;;;;9.30;100.00;99217.47;10457820;28;20447;-74
2024/04/01 03:46:58;;;;;;;0.65;0.65;;;;;;;9.33;100.00;99217.00;10473688;28;20169;-74
2024/04/01 03:51:58;;;;;;;0.55;0.55;;;;;;;9.30;100.00;99212.88;10457292;28;20067;-74
2024/04/01 03:56:59;;;;;;;0.32;0.32;;;;;;;9.35;100.00;99211.38;10457386;28;20112;-74
2024/04/01 04:01:59;;;;;;;0.60;0.60;;;;;;;9.31;100.00;99202.91;10439880;28;20119;-74
2024/04/01 04:07:00;;;;;;;0.70;0.70;;;;;;;9.17;100.00;99199.59;10457080;28;20028;-74
2024/04/01 04:12:00;;;;;;;4.95;1.38;;;;;;;9.04;100.00;99203.28;10461069;28;20033;-76
2024/04/01 04:17:01;;;;;;;0.60;0.60;;;;;;;9.02;100.00;99200.00;10461088;28;20128;-75
2024/04/01 04:22:01;;;;;;;0.50;0.50;;;;;;;8.99;100.00;99203.16;10458968;28;20040;-76
2024/04/01 04:27:02;;;;;;;0.30;0.30;;;;;;;8.94;100.00;99196.81;10456528;28;20064;-75
2024/04/01 04:32:09;;;;;;;0.57;0.57;;;;;;;8.90;100.00;99196.41;10457600;28;20460;-76
2024/04/01 04:37:09;;;;;;;0.50;0.50;;;;;;;8.82;100.00;99202.16;10458785;28;20044;-75
2024/04/01 04:42:09;;;;;;;0.60;0.60;;;;;;;8.75;100.00;99210.34;10458898;28;20029;-76
2024/04/01 04:47:10;;;;;;;0.70;0.70;;;;;;;8.79;100.00;99222.31;10455911;28;20029;-75
2024/04/01 04:52:10;;;;;;;0.40;0.40;;;;;;;8.72;100.00;99224.28;10457694;28;20033;-75
2024/04/01 04:57:11;;;;;;;22.17;3.30;;;;;;;8.74;100.00;99245.63;10457229;28;20033;-76
2024/04/01 05:02:12;;;;;;;0.70;0.70;;;;;;;8.69;100.00;99243.63;10456614;28;20447;-76
2024/04/01 05:07:13;;;;;;;1.08;1.08;;;;;;;8.60;100.00;99248.50;10456548;28;20033;-76
2024/04/01 05:12:14;;;;;;;0.60;0.60;;;;;;;8.58;100.00;99247.06;10457161;28;20045;-75
2024/04/01 05:17:15;;;;;;;0.98;0.98;;;;;;;8.55;100.00;99256.44;10457367;28;20060;-75
2024/04/01 05:22:16;;;;;;;0.55;0.55;;;;;;;8.53;100.00;99261.22;10456234;28;20492;-76
2024/04/01 05:27:16;;;;;;;1.20;0.95;;;;;;;8.51;100.00;99273.28;10454916;28;20029;-76
2024/04/01 05:32:16;;;;;;;0.50;0.50;;;;;;;8.49;100.00;99276.22;10456055;28;20033;-76
2024/04/01 05:37:19;;;;;;;0.40;0.40;;;;;;;8.49;100.00;99287.03;10456288;28;20052;-76
2024/04/01 05:42:20;;;;;;;0.50;0.50;;;;;;;8.51;100.00;99297.56;10453888;28;20448;-75
2024/04/01 05:47:20;;;;;;;0.70;0.70;;;;;;;8.52;100.00;99291.13;10453787;28;20029;-75
2024/04/01 05:52:21;;;;;;;0.52;0.52;;;;;;;8.54;100.00;99291.72;10454946;28;20495;-75
2024/04/01 05:57:21;;;;;;;0.57;0.57;;;;;;;8.51;100.00;99294.88;10456234;28;20036;-75
2024/04/01 06:02:21;;;;;;;0.50;0.50;;;;;;;8.59;100.00;99303.50;10456015;28;20040;-76
2024/04/01 06:07:22;;;;;;;1.50;1.42;;;;;;;8.68;100.00;99306.75;10454408;28;20059;-75
2024/04/01 06:12:23;;;;;;;2.72;1.23;;;;;;;8.74;100.00;99315.78;10456892;28;20037;-76
2024/04/01 06:17:24;;;;;;;1.05;1.05;;;;;;;8.76;100.00;99300.22;10456026;28;20107;-75
2024/04/01 06:22:24;;;;;;;0.57;0.57;;;;;;;8.79;100.00;99303.28;10458106;28;20037;-76
2024/04/01 06:27:24;;;;;;;0.47;0.47;;;;;;;8.80;100.00;99301.41;10462610;28;20025;-77
2024/04/01 06:32:25;;;;;;;4.78;3.70;;;;;;;8.82;100.00;99302.00;10469106;28;20036;-76
2024/04/01 06:37:25;;;;;;;1.83;1.73;;;;;;;8.89;100.00;99307.34;10465040;28;20371;-75
2024/04/01 06:42:25;;;;;;;2.30;0.93;;;;;;;9.03;100.00;99315.06;10437152;28;20029;-76
2024/04/01 06:47:27;;;;;;;0.52;0.52;;;;;;;9.22;100.00;99332.06;10454765;28;20118;-75
2024/04/01 06:52:27;;;;;;;0.50;0.50;;;;;;;9.38;100.00;99337.88;10460607;28;20025;-76
2024/04/01 06:57:28;;;;;;;0.70;0.70;;;;;;;9.45;100.00;99339.47;10460294;28;20104;-75
2024/04/01 07:02:29;;;;;;;0.57;0.57;;;;;;;9.53;100.00;99355.34;10443955;28;20044;-76
2024/04/01 07:07:30;;;;;;;0.60;0.60;;;;;;;9.58;100.00;99360.06;10459720;28;20029;-76
2024/04/01 07:12:31;;;;;;;1.70;1.70;;;;;;;9.67;100.00;99366.00;10459079;28;20128;-74
2024/04/01 07:17:31;;;;;;;0.60;0.60;;;;;;;9.83;100.00;99368.03;10459590;28;20135;-76
2024/04/01 07:22:31;;;;;;;0.60;0.60;;;;;;;10.09;100.00;99372.22;10460044;28;20131;-76
2024/04/01 07:27:35;;;;;;;1.80;1.70;;;;;;;10.10;100.00;99368.44;10460258;28;20033;-77
2024/04/01 07:32:36;;;;;;;0.65;0.65;;;;;;;10.02;100.00;99360.69;10462031;28;20060;-77
2024/04/01 07:37:37;;;;;;;0.40;0.40;;;;;;;10.02;100.00;99361.50;10461110;28;20060;-77
2024/04/01 07:42:37;;;;;;;0.40;0.40;;;;;;;10.04;100.00;99366.66;10459998;28;20035;-79
2024/04/01 07:47:38;;;;;;;0.45;0.45;;;;;;;10.10;100.00;99367.63;10475288;28;20055;-78
2024/04/01 07:52:39;;;;;;;0.60;0.60;;;;;;;10.19;100.00;99387.88;10441494;28;20040;-78
2024/04/01 07:57:39;;;;;;;0.50;0.50;;;;;;;10.23;100.00;99403.41;10441279;28;20112;-78
2024/04/01 08:02:40;;;;;;;0.63;0.63;;;;;;;10.33;100.00;99416.41;10459291;28;20037;-79
2024/04/01 08:07:40;;;;;;;0.50;0.50;;;;;;;10.34;100.00;99426.19;10457618;28;20044;-78
2024/04/01 08:12:40;;;;;;;0.32;0.32;;;;;;;10.17;100.00;99434.09;10458655;28;20041;-76
2024/04/01 08:17:41;;;;;;;0.70;0.70;;;;;;;10.08;100.00;99424.66;10441417;28;20053;-76
2024/04/01 08:22:41;;;;;;;0.50;0.50;;;;;;;10.09;100.00;99426.31;10361899;28;20076;-76
2024/04/01 08:27:42;;;;;;;1.98;1.33;;;;;;;10.10;100.00;99425.25;10456250;28;20043;-76
2024/04/01 08:32:42;;;;;;;0.50;0.50;;;;;;;10.17;100.00;99434.09;10456967;28;20436;-76
2024/04/01 08:37:42;;;;;;;0.40;0.40;;;;;;;10.21;100.00;99435.28;10457086;28;20120;-77
2024/04/01 08:42:44;;;;;;;0.55;0.55;;;;;;;10.33;100.00;99453.47;10458692;28;20059;-76
2024/04/01 08:47:44;;;;;;;0.50;0.50;;;;;;;10.50;100.00;99449.03;10456919;28;20033;-76
2024/04/01 08:53:08;;;;;;;0.40;0.40;;;;;;;10.50;100.00;99450.91;10439041;28;20024;-76
2024/04/01 08:58:08;;;;;;;0.68;0.68;;;;;;;10.60;100.00;99459.28;10456146;28;20127;-76
2024/04/01 09:03:09;;;;;;;1.88;1.80;;;;;;;10.56;100.00;99467.06;10455897;28;20219;-76
2024/04/01 09:08:09;;;;;;;7.10;5.13;;;;;;;10.86;100.00;99464.25;10455387;28;20045;-76
2024/04/01 09:13:13;;;;;;;4.82;4.43;;;;;;;10.97;100.00;99486.16;10438139;28;20439;-76
2024/04/01 09:18:13;;;;;;;9.25;4.88;;;;;;;10.98;100.00;99487.84;10454084;28;20056;-76
2024/04/01 09:23:14;;;;;;;7.88;5.13;;;;;;;11.05;100.00;99493.94;10456339;28;20036;-76
2024/04/01 09:28:15;;;;;;;4.72;4.32;;;;;;;11.16;100.00;99495.81;10456057;28;20033;-76
2024/04/01 09:33:15;;;;;;;10.13;4.60;;;;;;;11.16;100.00;99498.53;10438719;28;20032;-76
2024/04/01 09:38:16;;;;;;;6.85;4.00;;;;;;;11.16;100.00;99490.41;10456032;28;20393;-76
2024/04/01 09:43:27;;;;;;;18.45;4.28;;;;;;;11.11;100.00;99501.97;10453904;28;20059;-76
2024/04/01 09:48:28;;;;;;;15.75;3.15;;;;;;;11.18;100.00;99515.41;10458185;28;20112;-76
2024/04/01 09:53:28;;;;;;;8.20;4.07;;;;;;;11.37;100.00;99518.81;10460333;28;20068;-76
2024/04/01 09:59:00;;;;;;;10.85;3.97;;;;;;;11.32;100.00;99516.78;10456793;28;20029;-76
2024/04/01 10:04:12;;;;;;;17.52;4.25;;;;;;;11.49;100.00;99521.53;10455304;28;20024;-76
2024/04/01 10:09:43;;;;;;;3.58;3.28;;;;;;;11.50;100.00;99518.56;10455218;28;20474;-76
2024/04/01 10:15:04;;;;;;;9.65;3.38;;;;;;;11.46;100.00;99525.53;10421744;28;20143;-76
2024/04/01 10:20:42;;;;;;;7.63;4.45;;;;;;;11.36;100.00;99526.13;10453234;28;20029;-76
2024/04/01 10:26:19;;;;;;;8.95;2.90;;;;;;;11.44;100.00;99529.53;10458379;28;20039;-75
2024/04/01 10:31:37;;;;;;;5.93;3.33;;;;;;;11.21;100.00;99530.34;10446365;28;20459;-75
2024/04/01 10:37:17;;;;;;;8.32;4.28;;;;;;;11.21;100.00;99535.78;10446099;28;20065;-76
2024/04/01 10:42:43;;;;;;;6.72;3.55;;;;;;;11.38;100.00;99534.00;10460876;28;20509;-76
2024/04/01 10:48:15;;;;;;;4.20;3.22;;;;;;;11.48;100.00;99541.53;10460030;28;20021;-76
2024/04/01 10:53:55;;;;;;;6.00;3.17;;;;;;;11.45;100.00;99547.44;10460906;28;20453;-76
2024/04/01 10:59:25;;;;;;;9.88;3.65;;;;;;;11.63;100.00;99553.53;10461372;28;20064;-76
2024/04/01 11:04:37;;;;;;;7.40;4.18;;;;;;;11.64;100.00;99563.31;10459175;28;20361;-76
2024/04/01 11:09:53;;;;;;;3.22;2.88;;;;;;;11.84;100.00;99573.00;10461697;28;20067;-76
2024/04/01 11:14:54;;;;;;;4.28;2.80;;;;;;;11.95;100.00;99574.88;10459980;28;20064;-76
2024/04/01 11:20:07;;;;;;;9.13;2.65;;;;;;;12.14;100.00;99582.88;10443906;28;20040;-76
2024/04/01 11:25:11;;;;;;;6.85;2.53;;;;;;;12.13;100.00;99587.47;10460136;28;20025;-76
2024/04/01 11:30:26;;;;;;;3.10;2.45;;;;;;;12.18;100.00;99595.69;10460213;28;20499;-76
2024/04/01 11:35:36;;;;;;;7.82;2.28;;;;;;;12.60;100.00;99595.44;10458379;28;20033;-76
2024/04/01 11:40:37;;;;;;;11.85;3.08;;;;;;;12.65;100.00;99595.53;10443022;28;20471;-76
2024/04/01 11:45:39;;;;;;;4.03;1.73;;;;;;;12.85;100.00;99605.94;10441187;28;20056;-76
2024/04/01 11:50:51;;;;;;;15.25;1.95;;;;;;;13.12;100.00;99598.00;10442087;28;20033;-76
2024/04/01 11:55:58;;;;;;;3.70;2.22;;;;;;;13.08;100.00;99605.03;10458643;28;20124;-75
2024/04/01 12:01:00;;;;;;;3.28;1.55;;;;;;;13.16;100.00;99622.81;10459476;28;20033;-76
2024/04/01 12:06:03;;;;;;;1.05;1.05;;;;;;;13.37;100.00;99630.28;10459166;28;20407;-76
2024/04/01 12:11:05;;;;;;;1.73;1.63;;;;;;;13.30;100.00;99631.50;10459049;28;20044;-76
2024/04/01 12:16:08;;;;;;;4.95;1.77;;;;;;;13.33;100.00;99626.38;10458049;28;20068;-75
2024/04/01 12:21:08;;;;;;;4.93;1.25;;;;;;;13.57;100.00;99640.66;10458217;28;20036;-76
2024/04/01 12:26:11;;;;;;;2.90;1.92;;;;;;;13.84;100.00;99634.50;10457074;28;20067;-75
2024/04/01 12:31:15;;;;;;;0.93;0.93;;;;;;;14.56;100.00;99642.59;10458508;28;20025;-75
2024/04/01 12:36:16;;;;;;;4.55;1.40;;;;;;;14.88;100.00;99656.28;10439798;28;20489;-75
2024/04/01 12:41:21;;;;;;;3.47;2.25;;;;;;;15.35;100.00;99658.41;10457896;28;20049;-75
2024/04/01 12:46:26;;;;;;;2.22;1.63;;;;;;;15.51;100.00;99661.25;10458119;28;20029;-75
2024/04/01 12:51:26;;;;;;;2.15;1.95;;;;;;;15.34;100.00;99651.28;10457504;28;20111;-75
2024/04/01 12:56:43;;;;;;;6.38;1.80;;;;;;;15.47;100.00;99660.94;10425568;28;20191;-75
2024/04/01 13:01:53;;;;;;;6.65;2.15;;;;;;;15.26;100.00;99667.31;10443616;28;20033;-76
2024/04/01 13:07:22;;;;;;;6.32;2.60;;;;;;;15.51;100.00;99670.25;10458140;28;20033;-75
2024/04/01 13:12:38;;;;;;;5.60;2.05;;;;;;;16.12;100.00;99675.38;10455201;28;20468;-75
2024/04/01 13:18:09;;;;;;;6.70;1.77;;;;;;;16.48;100.00;99670.09;10456403;28;20494;-75
2024/04/01 13:23:23;;;;;;;4.38;1.80;;;;;;;16.31;100.00;99677.66;10454858;28;20192;-75
2024/04/01 13:28:47;;;;;;;2.85;2.55;;;;;;;16.96;100.00;99679.84;10438685;28;20365;-75
2024/04/01 13:34:23;;;;;;;4.03;1.60;;;;;;;17.12;100.00;99685.34;10455549;28;20028;-75
2024/04/01 13:39:41;;;;;;;2.53;2.35;;;;;;;17.95;100.00;99684.31;10440698;28;20029;-75
2024/04/01 13:44:54;;;;;;;3.45;2.50;;;;;;;17.70;100.00;99691.41;10454001;28;20387;-75
2024/04/01 13:50:21;;;;;;;8.80;2.38;;;;;;;16.71;100.00;99693.41;10455347;28;20032;-75
2024/04/01 13:55:24;;;;;;;2.00;1.90;;;;;;;15.97;100.00;99697.09;10451674;28;20036;-75
2024/04/01 14:00:43;;;;;;;2.03;1.65;;;;;;;15.74;100.00;99690.94;10441103;28;20258;-75
2024/04/01 14:06:01;;;;;;;2.67;2.47;;;;;;;16.56;100.00;99696.91;10448117;28;20021;-75
2024/04/01 14:11:24;;;;;;;4.90;1.73;;;;;;;16.68;100.00;99700.22;10462688;28;20071;-75
2024/04/01 14:16:50;;;;;;;2.75;2.22;;;;;;;17.06;100.00;99691.91;10462788;28;20357;-75
2024/04/01 14:21:51;;;;;;;2.08;1.98;;;;;;;17.13;100.00;99701.50;10452677;28;20056;-75
2024/04/01 14:26:51;;;;;;;2.35;2.22;;;;;;;16.84;100.00;99698.41;10462837;28;20040;-75
2024/04/01 14:31:51;;;;;;;6.68;3.00;;;;;;;16.60;100.00;99691.72;10445272;28;20110;-75
2024/04/01 14:36:53;;;;;;;1.67;1.58;;;;;;;16.31;100.00;99697.59;10461468;28;20104;-75
2024/04/01 14:41:53;;;;;;;2.92;2.42;;;;;;;16.33;100.00;99705.50;10461538;28;20093;-75
2024/04/01 14:46:53;;;;;;;3.00;2.70;;;;;;;16.20;100.00;99702.16;10461798;28;20059;-75
2024/04/01 14:51:54;;;;;;;4.65;2.20;;;;;;;16.03;100.00;99705.06;10461555;28;20429;-75
2024/04/01 14:56:57;;;;;;;1.90;1.77;;;;;;;16.47;100.00;99702.06;10460243;28;20033;-75
2024/04/01 15:01:58;;;;;;;2.30;1.83;;;;;;;16.21;100.00;99705.75;10461453;28;20058;-75
2024/04/01 15:06:58;;;;;;;1.73;1.63;;;;;;;15.74;100.00;99711.94;10460578;28;20113;-75
2024/04/01 15:11:58;;;;;;;1.33;1.23;;;;;;;15.39;100.00;99715.97;10459580;28;20077;-75
2024/04/01 15:16:59;;;;;;;5.25;2.22;;;;;;;15.02;100.00;99718.59;10460696;28;20080;-75
2024/04/01 15:21:59;;;;;;;5.15;2.17;;;;;;;14.71;100.00;99714.66;10461542;28;20583;-74
2024/04/01 15:27:03;;;;;;;2.25;2.05;;;;;;;14.60;100.00;99709.09;10458993;28;20024;-75
2024/04/01 15:32:03;;;;;;;4.70;1.58;;;;;;;14.54;100.00;99707.38;10442714;28;20025;-75
2024/04/01 15:37:04;;;;;;;6.38;2.42;;;;;;;14.53;100.00;99713.09;10458790;28;20456;-74
2024/04/01 15:42:05;;;;;;;3.67;2.25;;;;;;;14.47;100.00;99720.34;10458462;28;20082;-74
2024/04/01 15:47:05;;;;;;;2.85;2.65;;;;;;;14.52;100.00;99720.44;10475457;28;20039;-75
2024/04/01 15:52:06;;;;;;;3.70;2.38;;;;;;;14.57;100.00;99728.66;10458994;28;20036;-75
2024/04/01 15:57:07;;;;;;;3.50;2.45;;;;;;;14.67;100.00;99725.25;10458436;28;20021;-75
2024/04/01 16:02:08;;;;;;;1.95;1.55;;;;;;;14.41;100.00;99719.44;10442178;28;20025;-75
2024/04/01 16:07:08;;;;;;;6.57;2.55;;;;;;;14.33;100.00;99719.88;10457681;28;20029;-75
2024/04/01 16:12:08;;;;;;;4.03;2.03;;;;;;;14.46;100.00;99720.59;10474537;28;20056;-75
2024/04/01 16:17:10;;;;;;;3.05;2.50;;;;;;;14.41;100.00;99724.88;10459836;28;20055;-75
2024/04/01 16:22:11;;;;;;;5.65;2.10;;;;;;;14.42;100.00;99729.28;10457289;28;20486;-75
2024/04/01 16:27:20;;;;;;;5.00;1.83;;;;;;;14.17;100.00;99731.66;10441063;28;20151;-74
2024/04/01 16:32:20;;;;;;;3.00;1.63;;;;;;;14.02;100.00;99739.56;10457944;28;20036;-74
2024/04/01 16:37:21;;;;;;;1.63;1.50;;;;;;;14.07;100.00;99743.19;10442920;28;20033;-74
2024/04/01 16:42:21;;;;;;;4.05;2.50;;;;;;;13.84;100.00;99736.00;10457779;28;20062;-74
2024/04/01 16:47:22;;;;;;;5.50;1.23;;;;;;;13.60;100.00;99738.06;10474665;28;20025;-74
2024/04/01 16:52:23;;;;;;;2.95;2.22;;;;;;;13.70;100.00;99751.03;10459706;28;20111;-74
2024/04/01 16:57:23;;;;;;;2.25;1.92;;;;;;;13.48;100.00;99759.91;10441888;28;20017;-75
2024/04/01 17:02:23;;;;;;;6.43;2.33;;;;;;;13.06;100.00;99775.66;10457159;28;20029;-74
2024/04/01 17:07:24;;;;;;;3.05;2.00;;;;;;;12.83;100.00;99778.41;10458355;28;20029;-74
2024/04/01 17:12:24;;;;;;;3.20;1.90;;;;;;;12.66;100.00;99771.00;10441420;28;20025;-74
2024/04/01 17:17:25;;;;;;;5.22;2.75;;;;;;;12.46;100.00;99767.88;10458286;28;20047;-74
2024/04/01 17:22:26;;;;;;;2.40;2.17;;;;;;;12.20;100.00;99769.19;10454534;28;20119;-74
2024/04/01 17:27:27;;;;;;;2.70;2.50;;;;;;;12.14;100.00;99773.66;10456157;28;20033;-74
2024/04/01 17:32:27;;;;;;;2.72;2.42;;;;;;;11.90;100.00;99785.53;10438181;28;20029;-74
2024/04/01 17:37:28;;;;;;;4.13;1.90;;;;;;;11.76;100.00;99785.72;10438028;28;20462;-74
2024/04/01 17:42:28;;;;;;;4.43;2.53;;;;;;;11.78;100.00;99793.63;10438817;28;20053;-74
2024/04/01 17:47:29;;;;;;;3.10;2.83;;;;;;;11.80;100.00;99796.91;10454874;28;20055;-74
2024/04/01 17:52:29;;;;;;;7.40;2.88;;;;;;;11.77;100.00;99800.94;10438358;28;20044;-74
2024/04/01 17:57:30;;;;;;;6.53;2.22;;;;;;;11.82;100.00;99811.91;10455573;28;20029;-74
2024/04/01 18:02:31;;;;;;;1.83;1.30;;;;;;;11.96;100.00;99817.16;10453761;28;20386;-74
2024/04/01 18:07:31;;;;;;;11.90;2.67;;;;;;;11.97;100.00;99824.25;10437715;28;20032;-74
2024/04/01 18:12:32;;;;;;;1.77;1.67;;;;;;;11.85;100.00;99829.66;10454006;28;20384;-74
2024/04/01 18:17:32;;;;;;;5.85;1.60;;;;;;;11.67;100.00;99837.81;10454188;28;20075;-74
2024/04/01 18:22:33;;;;;;;2.97;1.77;;;;;;;11.64;100.00;99839.09;10455235;28;20555;-74
2024/04/01 18:27:33;;;;;;;5.55;1.48;;;;;;;11.34;100.00;99834.50;10453884;28;20415;-75
2024/04/01 18:32:34;;;;;;;2.83;1.98;;;;;;;11.17;100.00;99847.03;10437117;28;20021;-75
2024/04/01 18:37:34;;;;;;;2.20;2.00;;;;;;;10.95;100.00;99846.66;10454106;28;20056;-74
2024/04/01 18:42:35;;;;;;;4.93;2.42;;;;;;;10.74;100.00;99858.75;10452961;28;20140;-74
2024/04/01 18:47:36;;;;;;;5.45;1.90;;;;;;;10.62;100.00;99864.06;10459551;28;20107;-74
2024/04/01 18:52:38;;;;;;;7.60;3.22;;;;;;;10.49;100.00;99866.91;10462113;28;20052;-74
2024/04/01 18:57:38;;;;;;;4.05;2.67;;;;;;;10.38;100.00;99873.06;10462562;28;20025;-74
2024/04/01 19:02:39;;;;;;;5.25;2.85;;;;;;;10.21;100.00;99872.72;10444046;28;20033;-74
2024/04/01 19:07:39;;;;;;;3.92;2.67;;;;;;;10.18;100.00;99889.44;10443850;28;20481;-74
2024/04/01 19:12:39;;;;;;;5.75;1.98;;;;;;;10.04;100.00;99893.25;10443578;28;20468;-74
2024/04/01 19:17:40;;;;;;;12.32;3.47;;;;;;;9.99;100.00;99894.75;10459605;28;20055;-74
2024/04/01 19:22:40;;;;;;;3.53;2.08;;;;;;;9.88;100.00;99894.59;10460736;28;20119;-74
2024/04/01 19:27:41;;;;;;;5.60;2.05;;;;;;;9.80;100.00;99903.81;10463874;28;20033;-74
2024/04/01 19:32:41;;;;;;;3.22;2.80;;;;;;;9.76;100.00;99916.94;10445743;28;20437;-74
2024/04/01 19:37:42;;;;;;;3.33;3.03;;;;;;;9.72;100.00;99918.41;10444295;28;20040;-74
2024/04/01 19:42:42;;;;;;;2.95;2.65;;;;;;;9.63;100.00;99919.69;10459120;28;20072;-73
2024/04/01 19:47:43;;;;;;;10.57;3.67;;;;;;;9.67;100.00;99920.13;10459412;28;20029;-74
2024/04/01 19:52:46;;;;;;;9.48;3.63;;;;;;;9.67;100.00;99920.13;10460621;28;20116;-74
2024/04/01 19:57:46;;;;;;;5.95;3.40;;;;;;;9.59;100.00;99934.69;10441515;28;20037;-73
2024/04/01 20:02:47;;;;;;;5.18;4.13;;;;;;;9.46;100.00;99927.47;10474654;28;20182;-74
2024/04/01 20:07:47;;;;;;;13.20;3.95;;;;;;;9.36;100.00;99927.09;10440635;28;20020;-73
2024/04/01 20:12:48;;;;;;;8.35;4.93;;;;;;;9.37;100.00;99927.91;10441084;28;20025;-73
2024/04/01 20:17:49;;;;;;;7.85;3.40;;;;;;;9.35;100.00;99925.44;10440626;28;20045;-74
2024/04/01 20:22:49;;;;;;;6.13;3.50;;;;;;;9.19;100.00;99925.88;10440564;28;20064;-73
2024/04/01 20:27:50;;;;;;;3.67;3.38;;;;;;;9.18;100.00;99926.94;10456903;28;20043;-74
2024/04/01 20:32:51;;;;;;;3.08;2.83;;;;;;;9.12;100.00;99930.47;10423614;28;20342;-74
2024/04/01 20:37:52;;;;;;;7.65;3.58;;;;;;;9.14;100.00;99931.13;10456905;28;20033;-75
2024/04/01 20:42:53;;;;;;;5.63;3.40;;;;;;;9.28;100.00;99932.72;10440786;28;20028;-75
2024/04/01 20:47:53;;;;;;;7.05;3.00;;;;;;;9.36;100.00;99935.19;10423487;28;20017;-75
2024/04/01 20:52:57;;;;;;;4.10;3.17;;;;;;;9.26;100.00;99938.34;10439589;28;20108;-75
2024/04/01 20:57:58;;;;;;;4.30;3.38;;;;;;;9.19;100.00;99945.66;10438480;28;20395;-74
2024/04/01 21:02:59;;;;;;;8.27;3.55;;;;;;;9.16;100.00;99950.66;10438629;28;20310;-74
2024/04/01 21:08:07;;;;;;;3.97;3.65;;;;;;;9.14;100.00;99955.41;10438702;28;20033;-74
2024/04/01 21:13:07;;;;;;;7.80;3.78;;;;;;;9.10;100.00;99956.91;10455373;28;20053;-75
2024/04/01 21:18:08;;;;;;;13.13;4.63;;;;;;;9.06;100.00;99962.72;10455384;28;20049;-75
2024/04/01 21:23:08;;;;;;;5.28;2.90;;;;;;;9.03;100.00;99957.72;10454166;28;20086;-74
2024/04/01 21:28:08;;;;;;;2.88;2.67;;;;;;;9.02;100.00;99964.16;10438733;28;20138;-74
2024/04/01 21:33:09;;;;;;;3.95;3.28;;;;;;;8.89;100.00;99957.94;10454752;28;20028;-75
2024/04/01 21:38:09;;;;;;;2.72;2.53;;;;;;;8.88;100.00;99961.69;10455432;28;20043;-74
2024/04/01 21:43:12;;;;;;;2.97;2.78;;;;;;;8.90;100.00;99968.53;10439465;28;20094;-74
2024/04/01 21:48:13;;;;;;;2.88;2.35;;;;;;;8.87;100.00;99973.53;10438192;28;20437;-74
2024/04/01 21:53:14;;;;;;;2.35;2.15;;;;;;;8.79;100.00;99972.69;10436998;28;20182;-74
2024/04/01 21:58:17;;;;;;;4.40;2.65;;;;;;;8.81;100.00;99978.72;10454655;28;20068;-74
2024/04/01 22:03:18;;;;;;;2.72;2.00;;;;;;;8.74;100.00;99969.81;10454535;28;20037;-74
2024/04/01 22:08:18;;;;;;;3.22;1.67;;;;;;;8.76;100.00;99967.72;10457023;28;20029;-74
2024/04/01 22:13:19;;;;;;;2.70;2.50;;;;;;;8.78;100.00;99978.31;10455230;28;20037;-74
2024/04/01 22:18:20;;;;;;;3.78;2.30;;;;;;;8.74;100.00;99991.41;10453605;28;20462;-74
2024/04/01 22:23:20;;;;;;;5.57;2.97;;;;;;;8.77;100.00;99998.25;10460147;28;20123;-74
2024/04/01 22:28:22;;;;;;;7.25;3.63;;;;;;;8.78;100.00;100002.63;10462334;28;20091;-74
2024/04/01 22:33:22;;;;;;;2.40;2.20;;;;;;;8.80;100.00;100000.53;10477712;28;20368;-75
2024/04/01 22:38:24;;;;;;;2.65;2.45;;;;;;;8.78;100.00;100010.72;10463578;28;20041;-74
2024/04/01 22:43:25;;;;;;;2.55;2.35;;;;;;;8.77;100.00;100014.44;10462929;28;20544;-74
2024/04/01 22:48:25;;;;;;;3.78;2.45;;;;;;;8.78;100.00;100016.13;10462433;28;20476;-75
2024/04/01 22:53:25;;;;;;;2.78;2.58;;;;;;;8.65;100.00;100021.47;10460602;28;20562;-74
2024/04/01 22:58:26;;;;;;;2.13;2.00;;;;;;;8.64;100.00;100026.06;10462277;28;20441;-74
2024/04/01 23:03:26;;;;;;;3.20;3.00;;;;;;;8.63;100.00;100024.41;10460683;28;20029;-74
2024/04/01 23:08:27;;;;;;;6.40;2.55;;;;;;;8.59;100.00;100026.69;10444447;28;20438;-74
2024/04/01 23:13:27;;;;;;;3.08;2.65;;;;;;;8.49;100.00;100023.56;10460632;28;20033;-74
2024/04/01 23:18:28;;;;;;;4.15;2.47;;;;;;;8.52;100.00;100033.09;10459879;28;20527;-74